Time;durP1;ratioP1;P1;durP2;ratioP2;P2;SDS_P1;SDS_P2;PMS_P1;PMS_P2;Temp;Humidity;BMP_temperature;BMP_pressure;BME280_temperature;BME280_humidity;BME280_pressure;Samples;Min_cycle;Max_cycle;Signal;HPM_P1;HPM_P2
2023/01/24 00:02:06;;;;;;;8.52;6.15;;;;;;;;;;5051171;28;20031;-59
2023/01/24 00:04:32;;;;;;;7.25;6.10;;;;;;;;;;5051248;28;20139;-60
2023/01/24 00:06:58;;;;;;;8.05;5.35;;;;;;;;;;5051328;28;20515;-60
2023/01/24 00:09:24;;;;;;;8.90;5.43;;;;;;;;;;5051177;28;20025;-60
2023/01/24 00:11:50;;;;;;;6.60;5.85;;;;;;;;;;5051170;28;20501;-60
2023/01/24 00:14:16;;;;;;;6.93;5.47;;;;;;;;;;5051109;28;20028;-60
2023/01/24 00:16:42;;;;;;;9.45;5.53;;;;;;;;;;5051486;28;20448;-60
2023/01/24 00:19:08;;;;;;;7.65;5.40;;;;;;;;;;5051630;28;20055;-60
2023/01/24 00:21:34;;;;;;;6.20;5.60;;;;;;;;;;5049151;28;20113;-60
2023/01/24 00:24:00;;;;;;;7.40;6.22;;;;;;;;;;5049989;28;20040;-59
2023/01/24 00:26:26;;;;;;;7.85;6.50;;;;;;;;;;5049783;28;20466;-60
2023/01/24 00:28:52;;;;;;;6.25;5.32;;;;;;;;;;5050158;28;20029;-60
2023/01/24 00:31:18;;;;;;;7.55;5.35;;;;;;;;;;5049331;28;20127;-60
2023/01/24 00:33:44;;;;;;;7.85;5.30;;;;;;;;;;5049319;28;20108;-59
2023/01/24 00:36:10;;;;;;;6.80;5.40;;;;;;;;;;5049403;28;20021;-60
2023/01/24 00:38:36;;;;;;;6.68;5.63;;;;;;;;;;5048882;28;20021;-60
2023/01/24 00:41:02;;;;;;;6.70;5.90;;;;;;;;;;5047849;28;20408;-59
2023/01/24 00:43:28;;;;;;;8.90;5.38;;;;;;;;;;5048798;28;20033;-60
2023/01/24 00:45:55;;;;;;;6.32;5.30;;;;;;;;;;5048932;28;20032;-60
2023/01/24 00:48:21;;;;;;;6.43;5.80;;;;;;;;;;5048680;28;20111;-60
2023/01/24 00:50:47;;;;;;;6.13;5.28;;;;;;;;;;5048801;28;20061;-60
2023/01/24 00:53:13;;;;;;;6.32;5.25;;;;;;;;;;5049054;28;20126;-59
2023/01/24 00:55:46;;;;;;;6.03;5.35;;;;;;;;;;5049901;28;20032;-60
2023/01/24 00:58:13;;;;;;;5.75;5.13;;;;;;;;;;5051035;28;20036;-59
2023/01/24 01:00:39;;;;;;;6.63;5.53;;;;;;;;;;5051112;28;20079;-60
2023/01/24 01:03:15;;;;;;;6.60;5.63;;;;;;;;;;5050781;28;20097;-60
2023/01/24 01:05:41;;;;;;;6.35;5.50;;;;;;;;;;5051011;28;20060;-60
2023/01/24 01:08:07;;;;;;;6.43;5.38;;;;;;;;;;5050692;28;20017;-60
2023/01/24 01:10:33;;;;;;;7.22;5.80;;;;;;;;;;5049857;28;20041;-60
2023/01/24 01:12:59;;;;;;;6.10;5.32;;;;;;;;;;5050366;28;20477;-60
2023/01/24 01:15:25;;;;;;;6.65;6.00;;;;;;;;;;5050513;28;20116;-60
2023/01/24 01:17:51;;;;;;;6.13;5.18;;;;;;;;;;5050632;28;20120;-60
2023/01/24 01:20:17;;;;;;;5.82;5.22;;;;;;;;;;5050373;28;20021;-60
2023/01/24 01:22:43;;;;;;;6.30;5.63;;;;;;;;;;5050664;28;20033;-59
2023/01/24 01:25:09;;;;;;;6.38;5.78;;;;;;;;;;5050709;28;20029;-59
2023/01/24 01:27:35;;;;;;;6.05;5.20;;;;;;;;;;5050180;28;20030;-59
2023/01/24 01:30:01;;;;;;;6.07;5.38;;;;;;;;;;5050336;28;20120;-60
2023/01/24 01:32:27;;;;;;;8.00;5.72;;;;;;;;;;5050282;28;20029;-60
2023/01/24 01:34:53;;;;;;;5.82;5.07;;;;;;;;;;5050446;28;20568;-60
2023/01/24 01:37:19;;;;;;;5.72;4.88;;;;;;;;;;5050286;28;20029;-60
2023/01/24 01:39:45;;;;;;;6.70;5.25;;;;;;;;;;5050070;28;20032;-60
2023/01/24 01:42:11;;;;;;;6.45;5.45;;;;;;;;;;5050614;28;20029;-59
2023/01/24 01:44:49;;;;;;;5.47;4.97;;;;;;;;;;5050244;28;20106;-60
2023/01/24 01:47:20;;;;;;;7.07;5.80;;;;;;;;;;5050131;28;20090;-59
2023/01/24 01:49:53;;;;;;;6.22;5.35;;;;;;;;;;5050277;28;20036;-61
2023/01/24 01:52:19;;;;;;;6.30;5.57;;;;;;;;;;5051942;28;20128;-59
2023/01/24 01:54:46;;;;;;;6.47;5.35;;;;;;;;;;5053485;28;20079;-60
2023/01/24 01:57:23;;;;;;;5.90;4.95;;;;;;;;;;5054208;28;20029;-59
2023/01/24 01:59:55;;;;;;;7.28;5.90;;;;;;;;;;5053896;28;20032;-60
2023/01/24 02:02:22;;;;;;;5.93;4.97;;;;;;;;;;5053581;28;20079;-60
2023/01/24 02:04:50;;;;;;;5.72;5.10;;;;;;;;;;5054003;28;20033;-60
2023/01/24 02:07:16;;;;;;;6.10;5.50;;;;;;;;;;5052857;28;20404;-60
2023/01/24 02:09:43;;;;;;;5.22;4.72;;;;;;;;;;5036301;28;20457;-60
2023/01/24 02:12:15;;;;;;;6.78;5.80;;;;;;;;;;5054009;28;20040;-60
2023/01/24 02:17:27;;;;;;;6.30;5.45;;;;;;;;;;5033627;28;20037;-60
2023/01/24 02:20:11;;;;;;;5.78;5.05;;;;;;;;;;5033489;28;20025;-60
2023/01/24 02:22:40;;;;;;;5.75;4.82;;;;;;;;;;5033350;28;20029;-60
2023/01/24 02:25:25;;;;;;;6.57;5.88;;;;;;;;;;5033520;28;20092;-61
2023/01/24 02:27:51;;;;;;;6.60;5.55;;;;;;;;;;5033702;28;20452;-60
2023/01/24 02:30:17;;;;;;;6.55;5.13;;;;;;;;;;5041171;28;20112;-60
2023/01/24 02:32:43;;;;;;;5.18;4.68;;;;;;;;;;5053584;28;20025;-60
2023/01/24 02:35:22;;;;;;;6.95;5.32;;;;;;;;;;5053588;28;20119;-60
2023/01/24 02:37:48;;;;;;;5.53;4.93;;;;;;;;;;5053270;28;20028;-60
2023/01/24 02:40:14;;;;;;;5.80;4.88;;;;;;;;;;5052926;28;20385;-60
2023/01/24 02:42:40;;;;;;;6.13;5.53;;;;;;;;;;5053449;28;20067;-60
2023/01/24 02:45:06;;;;;;;5.78;5.18;;;;;;;;;;5052699;28;20546;-60
2023/01/24 02:47:35;;;;;;;5.60;4.88;;;;;;;;;;5052725;28;20033;-59
2023/01/24 02:50:02;;;;;;;6.07;4.80;;;;;;;;;;5052640;28;20029;-59
2023/01/24 02:55:13;;;;;;;6.13;5.13;;;;;;;;;;5053271;28;20047;-60
2023/01/24 03:00:24;;;;;;;5.88;4.80;;;;;;;;;;5052287;28;20056;-60
2023/01/24 03:02:50;;;;;;;5.13;4.40;;;;;;;;;;5052020;28;20053;-61
2023/01/24 03:05:16;;;;;;;5.70;4.57;;;;;;;;;;5052087;28;20056;-60
2023/01/24 03:07:43;;;;;;;5.80;4.63;;;;;;;;;;5052860;28;20037;-60
2023/01/24 03:10:12;;;;;;;4.97;4.25;;;;;;;;;;5052938;28;20116;-60
2023/01/24 03:34:50;;;;;;;6.38;4.82;;;;;;;;;;5052414;28;20036;-60
2023/01/24 03:40:06;;;;;;;5.75;4.70;;;;;;;;;;5052102;28;20091;-61
2023/01/24 03:42:33;;;;;;;4.90;4.40;;;;;;;;;;5051110;28;20520;-60
2023/01/24 03:44:59;;;;;;;5.50;4.45;;;;;;;;;;5051806;28;20405;-61
2023/01/24 03:47:25;;;;;;;5.05;4.32;;;;;;;;;;5051512;28;20036;-61
2023/01/24 03:52:35;;;;;;;6.43;4.68;;;;;;;;;;5051167;28;20547;-60
2023/01/24 03:55:01;;;;;;;5.13;4.60;;;;;;;;;;5051659;28;20052;-61
2023/01/24 03:57:28;;;;;;;4.85;3.97;;;;;;;;;;5051313;28;20056;-61
2023/01/24 03:59:54;;;;;;;5.25;4.22;;;;;;;;;;5051524;28;20039;-59
2023/01/24 04:02:21;;;;;;;4.43;3.83;;;;;;;;;;5051215;28;20057;-60
2023/01/24 04:07:31;;;;;;;6.45;4.38;;;;;;;;;;5051265;28;20090;-60
2023/01/24 04:09:58;;;;;;;4.22;3.80;;;;;;;;;;5051189;28;20028;-60
2023/01/24 04:12:24;;;;;;;5.60;4.40;;;;;;;;;;5051001;28;20606;-60
2023/01/24 04:14:50;;;;;;;4.60;4.10;;;;;;;;;;5051074;28;20063;-60
2023/01/24 04:17:16;;;;;;;5.18;4.22;;;;;;;;;;5051295;28;20114;-60
2023/01/24 04:19:42;;;;;;;4.43;3.90;;;;;;;;;;5051582;28;20021;-60
2023/01/24 04:22:08;;;;;;;4.47;4.07;;;;;;;;;;5051125;28;20413;-60
2023/01/24 04:24:34;;;;;;;4.85;4.35;;;;;;;;;;5049694;28;20078;-60
2023/01/24 04:27:00;;;;;;;5.00;4.50;;;;;;;;;;5050967;28;20068;-61
2023/01/24 04:29:26;;;;;;;4.40;3.85;;;;;;;;;;5051024;28;20020;-60
2023/01/24 04:31:52;;;;;;;4.85;4.07;;;;;;;;;;5050909;28;20037;-60
2023/01/24 04:34:18;;;;;;;4.82;4.20;;;;;;;;;;5051029;28;20027;-60
2023/01/24 04:36:44;;;;;;;5.97;4.50;;;;;;;;;;5050134;28;20036;-60
2023/01/24 04:39:10;;;;;;;5.70;4.22;;;;;;;;;;5051114;28;20036;-60
2023/01/24 04:41:36;;;;;;;4.47;4.07;;;;;;;;;;5050629;28;20099;-60
2023/01/24 04:44:02;;;;;;;6.28;4.00;;;;;;;;;;5050533;28;20338;-60
2023/01/24 04:46:28;;;;;;;6.13;4.25;;;;;;;;;;5050680;28;20033;-60
2023/01/24 04:48:54;;;;;;;4.68;4.10;;;;;;;;;;5050891;28;20021;-60
2023/01/24 04:51:20;;;;;;;6.05;3.50;;;;;;;;;;5050729;28;20049;-60
2023/01/24 04:53:46;;;;;;;4.88;4.28;;;;;;;;;;5050399;28;20013;-60
2023/01/24 04:56:12;;;;;;;4.10;3.42;;;;;;;;;;5051068;28;20040;-61
2023/01/24 04:58:38;;;;;;;6.47;4.57;;;;;;;;;;5050151;28;20112;-60
2023/01/24 05:01:04;;;;;;;4.68;3.92;;;;;;;;;;5050687;28;20035;-60
2023/01/24 05:03:30;;;;;;;4.03;3.50;;;;;;;;;;5050476;28;20021;-60
2023/01/24 05:05:56;;;;;;;4.55;3.80;;;;;;;;;;5050496;28;20040;-60
2023/01/24 05:08:22;;;;;;;4.63;3.90;;;;;;;;;;5050625;28;20108;-60
2023/01/24 05:10:48;;;;;;;4.70;4.20;;;;;;;;;;5050275;28;20036;-60
2023/01/24 05:13:14;;;;;;;4.60;3.92;;;;;;;;;;5050365;28;20021;-60
2023/01/24 05:15:48;;;;;;;7.10;3.60;;;;;;;;;;5050708;28;20455;-60
2023/01/24 05:18:14;;;;;;;4.40;4.00;;;;;;;;;;5050439;28;20032;-60
2023/01/24 05:20:39;;;;;;;5.05;3.72;;;;;;;;;;5050287;28;20029;-60
2023/01/24 05:23:05;;;;;;;4.38;3.60;;;;;;;;;;5050516;28;20021;-60
2023/01/24 05:25:31;;;;;;;4.70;3.65;;;;;;;;;;5050235;28;20032;-60
2023/01/24 05:27:57;;;;;;;4.57;3.65;;;;;;;;;;5053551;28;20462;-60
2023/01/24 05:30:23;;;;;;;5.00;4.05;;;;;;;;;;5054303;28;20142;-60
2023/01/24 05:32:49;;;;;;;4.20;3.60;;;;;;;;;;5054112;28;20025;-60
2023/01/24 05:35:15;;;;;;;5.35;4.50;;;;;;;;;;5053920;28;20024;-60
2023/01/24 05:37:41;;;;;;;4.18;3.58;;;;;;;;;;5054218;28;20481;-60
2023/01/24 05:40:08;;;;;;;4.38;3.60;;;;;;;;;;5054149;28;20104;-60
2023/01/24 05:42:34;;;;;;;4.53;4.13;;;;;;;;;;5053462;28;20037;-60
2023/01/24 05:45:00;;;;;;;4.45;3.63;;;;;;;;;;5052909;28;20548;-60
2023/01/24 05:47:26;;;;;;;4.40;3.60;;;;;;;;;;5053112;28;20482;-60
2023/01/24 05:49:52;;;;;;;4.28;3.88;;;;;;;;;;5053658;28;20033;-60
2023/01/24 05:52:21;;;;;;;4.18;3.42;;;;;;;;;;5053975;28;20550;-60
2023/01/24 05:54:48;;;;;;;4.40;3.72;;;;;;;;;;5053932;28;20573;-60
2023/01/24 05:57:14;;;;;;;5.18;4.32;;;;;;;;;;5054136;28;20024;-60
2023/01/24 05:59:40;;;;;;;4.60;3.67;;;;;;;;;;5053948;28;20421;-60
2023/01/24 06:02:06;;;;;;;5.22;4.25;;;;;;;;;;5053379;28;20036;-60
2023/01/24 06:04:32;;;;;;;5.38;4.63;;;;;;;;;;5053595;28;20025;-60
2023/01/24 06:06:58;;;;;;;4.55;3.88;;;;;;;;;;5053757;28;20028;-60
2023/01/24 06:09:24;;;;;;;5.32;3.92;;;;;;;;;;5053788;28;20496;-60
2023/01/24 06:11:50;;;;;;;4.55;3.83;;;;;;;;;;5052825;28;20116;-60
2023/01/24 06:14:16;;;;;;;5.10;4.00;;;;;;;;;;5053858;28;20036;-60
2023/01/24 06:16:45;;;;;;;4.75;3.88;;;;;;;;;;5053143;28;20032;-60
2023/01/24 06:19:12;;;;;;;4.03;3.42;;;;;;;;;;5053719;28;20057;-61
2023/01/24 06:21:44;;;;;;;5.32;3.80;;;;;;;;;;5043246;28;20036;-60
2023/01/24 06:24:16;;;;;;;4.95;3.83;;;;;;;;;;5052287;28;20039;-60
2023/01/24 06:26:42;;;;;;;4.85;3.75;;;;;;;;;;5053354;28;20021;-59
2023/01/24 06:29:12;;;;;;;5.07;4.10;;;;;;;;;;5053094;28;20064;-60
2023/01/24 06:31:38;;;;;;;5.57;3.95;;;;;;;;;;5053137;28;20029;-60
2023/01/24 06:34:07;;;;;;;4.93;3.88;;;;;;;;;;5052305;28;20028;-60
2023/01/24 06:36:41;;;;;;;4.05;3.58;;;;;;;;;;5053251;28;20039;-61
2023/01/24 06:39:11;;;;;;;5.13;4.47;;;;;;;;;;5053025;28;20115;-60
2023/01/24 06:41:37;;;;;;;4.10;3.45;;;;;;;;;;5052013;28;20025;-60
2023/01/24 06:44:03;;;;;;;16.42;3.20;;;;;;;;;;5053233;28;20082;-60
2023/01/24 06:46:29;;;;;;;6.55;3.75;;;;;;;;;;5053010;28;20048;-61
2023/01/24 06:48:55;;;;;;;5.55;3.47;;;;;;;;;;5053002;28;20060;-60
2023/01/24 06:51:21;;;;;;;5.20;3.92;;;;;;;;;;5053000;28;20033;-60
2023/01/24 06:53:47;;;;;;;7.63;4.00;;;;;;;;;;5052806;28;20120;-60
2023/01/24 06:56:13;;;;;;;8.00;3.47;;;;;;;;;;5052966;28;20032;-60
2023/01/24 06:58:39;;;;;;;5.60;3.72;;;;;;;;;;5052498;28;20021;-60
2023/01/24 07:01:05;;;;;;;4.82;3.85;;;;;;;;;;5052930;28;20025;-60
2023/01/24 07:03:31;;;;;;;6.18;3.95;;;;;;;;;;5051431;28;20039;-60
2023/01/24 07:05:57;;;;;;;6.10;3.92;;;;;;;;;;5052759;28;20123;-60
2023/01/24 07:08:23;;;;;;;9.90;4.32;;;;;;;;;;5052406;28;20033;-60
2023/01/24 07:10:49;;;;;;;5.88;4.45;;;;;;;;;;5051173;28;20044;-60
2023/01/24 07:13:15;;;;;;;6.43;4.28;;;;;;;;;;5052914;28;20021;-60
2023/01/24 07:15:41;;;;;;;6.40;4.20;;;;;;;;;;5052219;28;20401;-60
2023/01/24 07:18:12;;;;;;;4.80;3.85;;;;;;;;;;5051663;28;20032;-60
2023/01/24 07:20:38;;;;;;;8.43;5.25;;;;;;;;;;5052216;28;20029;-60
2023/01/24 07:23:04;;;;;;;8.68;4.68;;;;;;;;;;5051830;28;20083;-60
2023/01/24 07:25:31;;;;;;;8.55;4.63;;;;;;;;;;5052155;28;20548;-61
2023/01/24 07:27:57;;;;;;;8.30;5.15;;;;;;;;;;5052297;28;20031;-60
2023/01/24 07:30:23;;;;;;;8.73;5.30;;;;;;;;;;5052354;28;20051;-60
2023/01/24 07:32:49;;;;;;;21.08;5.18;;;;;;;;;;5051622;28;20025;-60
2023/01/24 07:35:16;;;;;;;10.25;4.90;;;;;;;;;;5052442;28;20037;-60
2023/01/24 07:37:41;;;;;;;9.82;5.00;;;;;;;;;;5051356;28;20028;-60
2023/01/24 07:40:08;;;;;;;7.95;5.28;;;;;;;;;;5052142;28;20033;-60
2023/01/24 07:42:34;;;;;;;10.32;5.90;;;;;;;;;;5051671;28;20389;-60
2023/01/24 07:45:00;;;;;;;5.63;4.50;;;;;;;;;;5050791;28;20024;-61
2023/01/24 07:47:27;;;;;;;6.57;4.68;;;;;;;;;;5051927;28;20025;-60
2023/01/24 07:49:53;;;;;;;9.05;4.88;;;;;;;;;;5051300;28;20029;-61
2023/01/24 07:52:19;;;;;;;8.93;5.63;;;;;;;;;;5051771;28;20074;-60
2023/01/24 07:54:45;;;;;;;6.05;4.88;;;;;;;;;;5051874;28;20021;-60
2023/01/24 07:57:11;;;;;;;9.20;5.55;;;;;;;;;;5051714;28;20029;-61
2023/01/24 07:59:37;;;;;;;6.78;4.82;;;;;;;;;;5050330;28;20025;-60
2023/01/24 08:02:03;;;;;;;14.80;5.25;;;;;;;;;;5051047;28;20025;-60
2023/01/24 08:04:28;;;;;;;6.90;4.78;;;;;;;;;;5051486;28;20103;-59
2023/01/24 08:09:39;;;;;;;7.80;5.22;;;;;;;;;;5048250;28;20040;-60
2023/01/24 08:12:05;;;;;;;6.18;4.60;;;;;;;;;;5050653;28;20033;-61
2023/01/24 08:14:31;;;;;;;5.57;4.55;;;;;;;;;;5051327;28;20079;-62
2023/01/24 08:16:57;;;;;;;6.88;4.40;;;;;;;;;;5051407;28;20052;-61
2023/01/24 08:19:23;;;;;;;10.23;6.07;;;;;;;;;;5051424;28;20051;-60
2023/01/24 08:21:50;;;;;;;5.68;4.75;;;;;;;;;;5051143;28;20021;-60
2023/01/24 08:24:16;;;;;;;7.38;5.10;;;;;;;;;;5051518;28;20028;-60
2023/01/24 08:26:46;;;;;;;9.73;5.25;;;;;;;;;;5051048;28;20032;-62
2023/01/24 08:29:12;;;;;;;7.03;4.78;;;;;;;;;;5051420;28;20060;-61
2023/01/24 08:31:38;;;;;;;6.75;4.80;;;;;;;;;;5051007;28;20431;-60
2023/01/24 08:34:04;;;;;;;6.38;4.75;;;;;;;;;;5051222;28;20029;-62
2023/01/24 08:36:30;;;;;;;6.55;4.93;;;;;;;;;;5050959;28;20052;-61
2023/01/24 08:38:57;;;;;;;6.90;4.18;;;;;;;;;;5051086;28;20067;-60
2023/01/24 08:41:23;;;;;;;7.30;4.88;;;;;;;;;;5051097;28;20029;-60
2023/01/24 08:43:52;;;;;;;7.30;4.43;;;;;;;;;;5050817;28;20021;-61
2023/01/24 08:46:18;;;;;;;7.95;4.57;;;;;;;;;;5051368;28;20095;-62
2023/01/24 08:48:44;;;;;;;5.43;4.22;;;;;;;;;;5051076;28;20108;-60
2023/01/24 08:51:10;;;;;;;5.07;3.92;;;;;;;;;;5050920;28;20112;-60
2023/01/24 08:53:35;;;;;;;7.68;4.70;;;;;;;;;;5050112;28;20075;-60
2023/01/24 08:56:02;;;;;;;5.15;3.90;;;;;;;;;;5050967;28;20393;-60
2023/01/24 08:58:28;;;;;;;6.88;4.47;;;;;;;;;;5050846;28;20091;-61
2023/01/24 09:00:54;;;;;;;7.68;4.78;;;;;;;;;;5050999;28;20469;-60
2023/01/24 09:03:20;;;;;;;7.28;4.45;;;;;;;;;;5055011;28;20036;-60
2023/01/24 09:05:46;;;;;;;6.38;4.15;;;;;;;;;;5054970;28;20021;-60
2023/01/24 09:08:12;;;;;;;6.85;4.80;;;;;;;;;;5055042;28;20029;-62
2023/01/24 09:10:38;;;;;;;6.32;4.78;;;;;;;;;;5054687;28;20041;-60
2023/01/24 09:13:04;;;;;;;6.55;4.65;;;;;;;;;;5055039;28;20535;-60
2023/01/24 09:15:31;;;;;;;7.78;4.75;;;;;;;;;;5054669;28;20103;-59
2023/01/24 09:18:00;;;;;;;5.05;3.83;;;;;;;;;;5054868;28;20017;-60
2023/01/24 09:20:26;;;;;;;4.78;4.07;;;;;;;;;;5054720;28;20457;-60
2023/01/24 09:22:52;;;;;;;6.57;4.35;;;;;;;;;;5054751;28;20057;-61
2023/01/24 09:25:18;;;;;;;7.00;4.70;;;;;;;;;;5055117;28;20389;-60
2023/01/24 09:27:45;;;;;;;7.00;4.30;;;;;;;;;;5054701;28;20013;-59
2023/01/24 09:30:11;;;;;;;5.13;4.10;;;;;;;;;;5054599;28;20029;-63
2023/01/24 09:32:37;;;;;;;6.53;4.35;;;;;;;;;;5054377;28;20036;-59
2023/01/24 09:35:03;;;;;;;5.22;4.07;;;;;;;;;;5054574;28;20025;-60
2023/01/24 09:37:29;;;;;;;4.57;4.00;;;;;;;;;;5054315;28;20530;-60
2023/01/24 09:39:55;;;;;;;6.75;4.40;;;;;;;;;;5054492;28;20105;-59
2023/01/24 09:42:30;;;;;;;6.28;4.18;;;;;;;;;;5054475;28;20083;-59
2023/01/24 09:45:03;;;;;;;4.82;3.58;;;;;;;;;;5054469;28;20492;-60
2023/01/24 09:47:35;;;;;;;5.38;4.15;;;;;;;;;;5054145;28;20028;-60
2023/01/24 09:50:05;;;;;;;5.38;4.00;;;;;;;;;;5054218;28;20032;-61
2023/01/24 09:52:40;;;;;;;6.45;4.68;;;;;;;;;;5054106;28;20035;-61
2023/01/24 09:55:22;;;;;;;5.72;4.22;;;;;;;;;;5054218;28;20025;-61
2023/01/24 09:57:50;;;;;;;4.50;3.80;;;;;;;;;;5054137;28;20033;-62
2023/01/24 10:00:19;;;;;;;4.97;3.92;;;;;;;;;;5054597;28;20029;-60
2023/01/24 10:02:45;;;;;;;4.95;3.83;;;;;;;;;;5053856;28;20111;-62
2023/01/24 10:05:15;;;;;;;4.93;4.10;;;;;;;;;;5054114;28;20451;-60
2023/01/24 10:07:50;;;;;;;5.00;3.90;;;;;;;;;;5053778;28;20039;-60
2023/01/24 10:10:35;;;;;;;5.95;3.83;;;;;;;;;;5054242;28;20025;-60
2023/01/24 10:13:01;;;;;;;4.18;3.42;;;;;;;;;;5053556;28;20053;-61
2023/01/24 10:15:45;;;;;;;4.65;3.33;;;;;;;;;;5053732;28;20519;-60
2023/01/24 10:18:14;;;;;;;4.90;4.18;;;;;;;;;;5053839;28;20116;-63
2023/01/24 10:21:00;;;;;;;4.55;3.78;;;;;;;;;;5053522;28;20439;-60
2023/01/24 10:23:26;;;;;;;4.38;3.75;;;;;;;;;;5053685;28;20021;-60
2023/01/24 10:26:21;;;;;;;5.68;4.13;;;;;;;;;;5053691;28;20036;-60
2023/01/24 10:28:51;;;;;;;4.93;3.22;;;;;;;;;;5032656;28;20117;-58
2023/01/24 10:31:22;;;;;;;4.68;3.50;;;;;;;;;;5053641;28;20080;-59
2023/01/24 10:33:49;;;;;;;6.28;4.20;;;;;;;;;;5053562;28;20025;-59
2023/01/24 10:36:34;;;;;;;5.03;3.85;;;;;;;;;;5053460;28;20027;-59
2023/01/24 10:38:59;;;;;;;6.45;4.25;;;;;;;;;;5053458;28;20029;-59
2023/01/24 10:41:26;;;;;;;5.07;4.22;;;;;;;;;;5053368;28;20473;-59
2023/01/24 10:43:55;;;;;;;4.82;3.92;;;;;;;;;;5053119;28;20477;-59
2023/01/24 10:46:32;;;;;;;5.03;3.85;;;;;;;;;;5053668;28;20033;-59
2023/01/24 10:49:00;;;;;;;4.70;3.80;;;;;;;;;;5053258;28;20025;-59
2023/01/24 10:51:26;;;;;;;5.22;3.90;;;;;;;;;;5052949;28;20383;-59
2023/01/24 10:53:55;;;;;;;6.32;4.70;;;;;;;;;;5053028;28;20032;-59
2023/01/24 10:56:21;;;;;;;5.45;4.15;;;;;;;;;;5053256;28;20401;-59
2023/01/24 10:58:56;;;;;;;5.57;4.47;;;;;;;;;;5053196;28;20029;-60
2023/01/24 11:01:24;;;;;;;6.85;4.13;;;;;;;;;;5052885;28;20021;-58
2023/01/24 11:03:50;;;;;;;4.70;3.70;;;;;;;;;;5052830;28;20036;-58
2023/01/24 11:06:37;;;;;;;4.70;4.13;;;;;;;;;;5052743;28;20036;-59
2023/01/24 11:09:09;;;;;;;6.05;4.10;;;;;;;;;;5052854;28;20103;-58
2023/01/24 11:11:39;;;;;;;5.75;4.18;;;;;;;;;;5052279;28;20037;-59
2023/01/24 11:14:05;;;;;;;5.30;4.30;;;;;;;;;;5052762;28;20032;-59
2023/01/24 11:16:33;;;;;;;5.22;4.47;;;;;;;;;;5052444;28;20028;-59
2023/01/24 11:19:01;;;;;;;5.40;4.45;;;;;;;;;;5052639;28;20100;-59
2023/01/24 11:21:29;;;;;;;5.80;4.55;;;;;;;;;;5052319;28;20507;-59
2023/01/24 11:24:01;;;;;;;5.97;4.35;;;;;;;;;;5051852;28;20032;-58
2023/01/24 11:26:28;;;;;;;5.60;4.47;;;;;;;;;;5052466;28;20032;-59
2023/01/24 11:29:08;;;;;;;6.72;4.72;;;;;;;;;;5052455;28;20045;-58
2023/01/24 11:31:38;;;;;;;5.45;4.13;;;;;;;;;;5052141;28;20033;-60
2023/01/24 11:34:11;;;;;;;6.18;4.10;;;;;;;;;;5052467;28;20053;-59
2023/01/24 11:36:37;;;;;;;9.63;3.60;;;;;;;;;;5052189;28;20040;-60
2023/01/24 11:39:11;;;;;;;5.03;4.10;;;;;;;;;;5052277;28;20029;-59
2023/01/24 11:41:43;;;;;;;7.25;4.53;;;;;;;;;;5052127;28;20025;-59
2023/01/24 11:44:09;;;;;;;5.35;4.32;;;;;;;;;;5052157;28;20436;-59
2023/01/24 11:46:40;;;;;;;5.47;4.32;;;;;;;;;;5051922;28;20079;-59
2023/01/24 11:49:33;;;;;;;6.53;4.60;;;;;;;;;;5052024;28;20561;-59
2023/01/24 11:52:20;;;;;;;5.20;4.10;;;;;;;;;;5051988;28;20033;-59
2023/01/24 11:54:59;;;;;;;5.05;4.15;;;;;;;;;;5051591;28;20535;-58
2023/01/24 11:57:30;;;;;;;4.88;4.38;;;;;;;;;;5052036;28;20473;-60
2023/01/24 12:00:14;;;;;;;4.85;4.25;;;;;;;;;;5051886;28;20028;-59
2023/01/24 12:02:59;;;;;;;5.15;4.00;;;;;;;;;;5051608;28;20158;-58
2023/01/24 12:05:32;;;;;;;4.80;4.30;;;;;;;;;;5051682;28;20021;-59
2023/01/24 12:08:10;;;;;;;5.60;4.03;;;;;;;;;;5051875;28;20025;-58
2023/01/24 12:10:36;;;;;;;4.82;4.28;;;;;;;;;;5051416;28;20022;-59
2023/01/24 12:13:19;;;;;;;8.68;5.05;;;;;;;;;;5051626;28;20033;-59
2023/01/24 12:15:52;;;;;;;5.63;4.05;;;;;;;;;;5050914;28;20044;-59
2023/01/24 12:18:38;;;;;;;5.65;4.22;;;;;;;;;;5051553;28;20032;-59
2023/01/24 12:21:07;;;;;;;5.50;4.50;;;;;;;;;;5051574;28;20032;-59
2023/01/24 12:23:36;;;;;;;7.70;4.68;;;;;;;;;;5051079;28;20400;-59
2023/01/24 12:26:06;;;;;;;5.28;4.50;;;;;;;;;;5051380;28;20117;-58
2023/01/24 12:28:38;;;;;;;5.50;4.45;;;;;;;;;;5051136;28;20036;-58
2023/01/24 12:31:05;;;;;;;5.57;4.38;;;;;;;;;;5051207;28;20063;-58
2023/01/24 12:33:33;;;;;;;4.53;3.85;;;;;;;;;;5051174;28;20481;-59
2023/01/24 12:36:01;;;;;;;5.97;4.95;;;;;;;;;;5051120;28;20079;-59
2023/01/24 12:38:30;;;;;;;5.13;4.22;;;;;;;;;;5051076;28;20021;-59
2023/01/24 12:41:15;;;;;;;6.13;4.80;;;;;;;;;;5051142;28;20036;-59
2023/01/24 12:44:03;;;;;;;4.45;4.00;;;;;;;;;;5050883;28;20036;-59
2023/01/24 12:46:29;;;;;;;5.50;4.82;;;;;;;;;;5050730;28;20473;-59
2023/01/24 12:49:07;;;;;;;7.85;5.30;;;;;;;;;;5051325;28;20079;-59
2023/01/24 12:51:39;;;;;;;5.43;4.60;;;;;;;;;;5050852;28;20378;-59
2023/01/24 12:54:10;;;;;;;5.80;4.60;;;;;;;;;;5050933;28;20029;-59
2023/01/24 12:56:49;;;;;;;6.10;4.90;;;;;;;;;;5050823;28;20029;-59
2023/01/24 12:59:17;;;;;;;6.82;5.05;;;;;;;;;;5050479;28;20033;-59
2023/01/24 13:01:54;;;;;;;5.93;5.13;;;;;;;;;;5050057;28;20024;-59
2023/01/24 13:04:28;;;;;;;5.55;5.03;;;;;;;;;;5050574;28;20060;-58
2023/01/24 13:07:03;;;;;;;5.63;5.00;;;;;;;;;;5050988;28;20495;-59
2023/01/24 13:09:37;;;;;;;7.03;5.65;;;;;;;;;;5050389;28;20039;-59
2023/01/24 13:12:04;;;;;;;6.57;5.82;;;;;;;;;;5050608;28;20041;-58
2023/01/24 13:14:33;;;;;;;6.85;5.60;;;;;;;;;;5050513;28;20111;-60
2023/01/24 13:16:59;;;;;;;6.18;5.55;;;;;;;;;;5050702;28;20100;-59
2023/01/24 13:19:44;;;;;;;6.50;5.72;;;;;;;;;;5050879;28;20113;-59
2023/01/24 13:22:19;;;;;;;7.03;5.70;;;;;;;;;;5050509;28;20420;-59
2023/01/24 13:24:48;;;;;;;7.40;5.72;;;;;;;;;;5050466;28;20063;-62
2023/01/24 13:27:20;;;;;;;8.23;5.97;;;;;;;;;;5050476;28;20105;-59
2023/01/24 13:30:05;;;;;;;6.60;5.63;;;;;;;;;;5050473;28;20033;-62
2023/01/24 13:32:38;;;;;;;7.47;6.22;;;;;;;;;;5050228;28;20044;-58
2023/01/24 13:35:13;;;;;;;6.53;5.32;;;;;;;;;;5050567;28;20096;-59
2023/01/24 13:37:39;;;;;;;7.57;5.88;;;;;;;;;;5050410;28;20485;-59
2023/01/24 13:40:07;;;;;;;6.45;5.75;;;;;;;;;;5050466;28;20022;-59
2023/01/24 13:42:33;;;;;;;6.80;5.90;;;;;;;;;;5050207;28;20033;-59
2023/01/24 13:44:59;;;;;;;7.10;5.78;;;;;;;;;;5050335;28;20334;-59
2023/01/24 13:47:26;;;;;;;7.15;6.25;;;;;;;;;;5051210;28;20420;-61
2023/01/24 13:49:52;;;;;;;6.95;6.25;;;;;;;;;;5054567;28;20070;-59
2023/01/24 13:52:33;;;;;;;7.10;5.90;;;;;;;;;;5054207;28;20111;-62
2023/01/24 13:55:00;;;;;;;7.65;6.10;;;;;;;;;;5054170;28;20032;-62
2023/01/24 13:57:27;;;;;;;8.30;6.93;;;;;;;;;;5054371;28;20048;-59
2023/01/24 14:00:09;;;;;;;7.50;6.50;;;;;;;;;;5054571;28;20025;-62
2023/01/24 14:02:37;;;;;;;9.23;6.55;;;;;;;;;;5053979;28;20044;-58
2023/01/24 14:05:04;;;;;;;7.38;6.57;;;;;;;;;;5054027;28;20028;-59
2023/01/24 14:07:38;;;;;;;7.15;6.35;;;;;;;;;;5053672;28;20397;-62
2023/01/24 14:10:05;;;;;;;7.23;6.50;;;;;;;;;;5053856;28;20025;-62
2023/01/24 14:12:34;;;;;;;8.02;6.80;;;;;;;;;;5053732;28;20381;-62
2023/01/24 14:15:06;;;;;;;7.85;7.05;;;;;;;;;;5053935;28;20051;-63
2023/01/24 14:17:51;;;;;;;8.05;7.13;;;;;;;;;;5053579;28;20029;-59
2023/01/24 14:20:21;;;;;;;7.15;6.13;;;;;;;;;;5053719;28;20061;-60
2023/01/24 14:22:47;;;;;;;8.00;6.90;;;;;;;;;;5053389;28;20371;-62
2023/01/24 14:25:27;;;;;;;7.15;6.32;;;;;;;;;;5053672;28;20508;-60
2023/01/24 14:28:05;;;;;;;8.00;6.57;;;;;;;;;;5054208;28;20493;-60
2023/01/24 14:30:37;;;;;;;8.23;7.30;;;;;;;;;;5053332;28;20025;-62
2023/01/24 14:33:23;;;;;;;9.15;6.90;;;;;;;;;;5053385;28;20485;-60
2023/01/24 14:36:01;;;;;;;7.70;6.88;;;;;;;;;;5053339;28;20146;-62
2023/01/24 14:38:27;;;;;;;8.93;7.20;;;;;;;;;;5053365;28;20397;-59
2023/01/24 14:40:54;;;;;;;8.65;7.72;;;;;;;;;;5053596;28;20183;-59
2023/01/24 14:43:20;;;;;;;7.80;7.00;;;;;;;;;;5053201;28;20390;-62
2023/01/24 14:45:47;;;;;;;8.77;7.88;;;;;;;;;;5053028;28;20474;-60
2023/01/24 14:48:17;;;;;;;8.75;7.63;;;;;;;;;;5053223;28;20033;-60
2023/01/24 14:50:43;;;;;;;8.55;7.53;;;;;;;;;;5053063;28;20029;-60
2023/01/24 14:53:22;;;;;;;9.05;7.97;;;;;;;;;;5053174;28;20504;-62
2023/01/24 14:55:48;;;;;;;8.80;7.88;;;;;;;;;;5052857;28;20017;-63
2023/01/24 14:58:15;;;;;;;10.27;8.68;;;;;;;;;;5052831;28;20025;-61
2023/01/24 15:00:41;;;;;;;8.98;7.95;;;;;;;;;;5051875;28;20043;-62
2023/01/24 15:03:13;;;;;;;9.65;7.68;;;;;;;;;;5052968;28;20536;-62
2023/01/24 15:05:39;;;;;;;10.55;8.40;;;;;;;;;;5052099;28;20408;-61
2023/01/24 15:08:07;;;;;;;9.32;8.35;;;;;;;;;;5052071;28;20029;-62
2023/01/24 15:10:39;;;;;;;8.88;7.93;;;;;;;;;;5051802;28;20068;-60
2023/01/24 15:13:11;;;;;;;9.55;8.55;;;;;;;;;;5051792;28;20025;-62
2023/01/24 15:15:39;;;;;;;9.68;8.68;;;;;;;;;;5052366;28;20497;-63
2023/01/24 15:18:07;;;;;;;9.65;8.65;;;;;;;;;;5052702;28;20056;-59
2023/01/24 15:20:33;;;;;;;9.65;8.38;;;;;;;;;;5051791;28;20453;-60
2023/01/24 15:23:02;;;;;;;10.07;8.90;;;;;;;;;;5052518;28;20489;-62
2023/01/24 15:25:30;;;;;;;11.70;8.38;;;;;;;;;;5052356;28;20017;-58
2023/01/24 15:27:56;;;;;;;9.90;8.32;;;;;;;;;;5052927;28;20056;-58
2023/01/24 15:30:23;;;;;;;9.88;8.30;;;;;;;;;;5052665;28;20105;-62
2023/01/24 15:32:55;;;;;;;9.30;8.13;;;;;;;;;;5052205;28;20029;-62
2023/01/24 15:35:22;;;;;;;8.82;7.93;;;;;;;;;;5052205;28;20025;-60